sensor_id;sensor_type;location;lat;lon;timestamp;pressure;altitude;pressure_sealevel;temperature;humidity
10261;BME280;5175;42.606;23.388;2022-10-16T00:00:44;94372.88;;;9.20;89.22
10261;BME280;5175;42.606;23.388;2022-10-16T00:03:11;94389.34;;;9.17;88.23
10261;BME280;5175;42.606;23.388;2022-10-16T00:05:39;94391.88;;;9.02;87.89
10261;BME280;5175;42.606;23.388;2022-10-16T00:08:07;94398.94;;;8.86;87.88
10261;BME280;5175;42.606;23.388;2022-10-16T00:10:35;94389.59;;;8.83;87.94
10261;BME280;5175;42.606;23.388;2022-10-16T00:13:02;94398.00;;;8.70;87.82
10261;BME280;5175;42.606;23.388;2022-10-16T00:15:29;94388.97;;;8.71;88.07
10261;BME280;5175;42.606;23.388;2022-10-16T00:17:56;94390.16;;;8.59;86.90
10261;BME280;5175;42.606;23.388;2022-10-16T00:20:23;94395.69;;;8.52;86.81
10261;BME280;5175;42.606;23.388;2022-10-16T00:22:49;94401.19;;;8.46;87.11
10261;BME280;5175;42.606;23.388;2022-10-16T00:25:16;94404.66;;;8.46;87.16
10261;BME280;5175;42.606;23.388;2022-10-16T00:27:44;94397.47;;;8.25;86.50
10261;BME280;5175;42.606;23.388;2022-10-16T00:30:11;94406.94;;;8.16;86.05
10261;BME280;5175;42.606;23.388;2022-10-16T00:32:38;94408.47;;;8.29;86.86
10261;BME280;5175;42.606;23.388;2022-10-16T00:35:05;94404.59;;;8.19;86.72
10261;BME280;5175;42.606;23.388;2022-10-16T00:37:32;94411.47;;;8.15;86.86
10261;BME280;5175;42.606;23.388;2022-10-16T00:39:59;94423.06;;;8.09;86.06
10261;BME280;5175;42.606;23.388;2022-10-16T00:42:25;94409.13;;;8.19;86.48
10261;BME280;5175;42.606;23.388;2022-10-16T00:44:55;94413.25;;;8.10;86.31
10261;BME280;5175;42.606;23.388;2022-10-16T00:47:26;94414.09;;;7.94;85.14
10261;BME280;5175;42.606;23.388;2022-10-16T00:49:59;94411.97;;;7.91;84.83
10261;BME280;5175;42.606;23.388;2022-10-16T00:52:28;94412.97;;;7.68;83.92
10261;BME280;5175;42.606;23.388;2022-10-16T00:54:56;94406.81;;;7.84;84.33
10261;BME280;5175;42.606;23.388;2022-10-16T00:57:24;94409.41;;;7.79;85.15
10261;BME280;5175;42.606;23.388;2022-10-16T00:59:52;94408.22;;;7.70;85.31
10261;BME280;5175;42.606;23.388;2022-10-16T01:02:21;94413.09;;;7.78;85.44
10261;BME280;5175;42.606;23.388;2022-10-16T01:04:49;94415.13;;;7.71;86.35
10261;BME280;5175;42.606;23.388;2022-10-16T01:07:26;94426.88;;;7.75;85.88
10261;BME280;5175;42.606;23.388;2022-10-16T01:10:03;94423.78;;;7.83;86.42
10261;BME280;5175;42.606;23.388;2022-10-16T01:12:39;94429.09;;;7.83;86.92
10261;BME280;5175;42.606;23.388;2022-10-16T01:15:11;94429.09;;;7.83;86.55
10261;BME280;5175;42.606;23.388;2022-10-16T01:17:49;94431.03;;;7.88;86.95
10261;BME280;5175;42.606;23.388;2022-10-16T01:20:24;94429.34;;;7.82;86.90
10261;BME280;5175;42.606;23.388;2022-10-16T01:23:07;94424.91;;;7.87;87.77
10261;BME280;5175;42.606;23.388;2022-10-16T01:25:56;94425.41;;;7.84;87.71
10261;BME280;5175;42.606;23.388;2022-10-16T01:28:32;94424.72;;;7.55;85.92
10261;BME280;5175;42.606;23.388;2022-10-16T01:31:01;94413.88;;;7.57;86.17
10261;BME280;5175;42.606;23.388;2022-10-16T01:33:34;94413.16;;;7.62;86.92
10261;BME280;5175;42.606;23.388;2022-10-16T01:36:07;94411.16;;;7.52;85.90
10261;BME280;5175;42.606;23.388;2022-10-16T01:38:38;94408.72;;;7.50;85.90
10261;BME280;5175;42.606;23.388;2022-10-16T01:41:09;94390.56;;;7.42;86.61
10261;BME280;5175;42.606;23.388;2022-10-16T01:43:40;94410.28;;;7.46;85.93
10261;BME280;5175;42.606;23.388;2022-10-16T01:46:10;94394.13;;;7.31;86.49
10261;BME280;5175;42.606;23.388;2022-10-16T01:48:39;94416.72;;;7.34;86.62
10261;BME280;5175;42.606;23.388;2022-10-16T01:51:10;94420.81;;;7.41;87.43
10261;BME280;5175;42.606;23.388;2022-10-16T01:53:39;94420.56;;;7.43;86.90
10261;BME280;5175;42.606;23.388;2022-10-16T01:56:08;94427.00;;;7.30;88.26
10261;BME280;5175;42.606;23.388;2022-10-16T01:58:40;94426.31;;;7.18;85.80
10261;BME280;5175;42.606;23.388;2022-10-16T02:01:08;94404.84;;;7.03;86.33
10261;BME280;5175;42.606;23.388;2022-10-16T02:03:40;94423.25;;;6.93;83.12
10261;BME280;5175;42.606;23.388;2022-10-16T02:06:08;94430.47;;;7.14;85.68
10261;BME280;5175;42.606;23.388;2022-10-16T02:08:36;94429.34;;;7.27;88.66
10261;BME280;5175;42.606;23.388;2022-10-16T02:11:05;94435.94;;;7.24;89.44
10261;BME280;5175;42.606;23.388;2022-10-16T02:13:35;94423.22;;;7.10;87.95
10261;BME280;5175;42.606;23.388;2022-10-16T02:16:06;94430.31;;;7.04;86.49
10261;BME280;5175;42.606;23.388;2022-10-16T02:18:33;94435.31;;;7.01;85.98
10261;BME280;5175;42.606;23.388;2022-10-16T02:21:02;94435.00;;;7.14;87.91
10261;BME280;5175;42.606;23.388;2022-10-16T02:23:36;94440.03;;;7.15;88.17
10261;BME280;5175;42.606;23.388;2022-10-16T02:26:08;94427.88;;;6.86;87.15
10261;BME280;5175;42.606;23.388;2022-10-16T02:28:41;94437.44;;;6.87;87.13
10261;BME280;5175;42.606;23.388;2022-10-16T02:31:12;94440.56;;;6.84;86.16
10261;BME280;5175;42.606;23.388;2022-10-16T02:33:42;94441.28;;;6.79;85.61
10261;BME280;5175;42.606;23.388;2022-10-16T02:36:13;94441.63;;;6.83;86.36
10261;BME280;5175;42.606;23.388;2022-10-16T02:38:40;94440.97;;;6.76;85.86
10261;BME280;5175;42.606;23.388;2022-10-16T02:41:08;94438.16;;;6.82;87.13
10261;BME280;5175;42.606;23.388;2022-10-16T02:43:35;94442.56;;;6.77;86.22
10261;BME280;5175;42.606;23.388;2022-10-16T02:46:01;94439.84;;;6.72;84.78
10261;BME280;5175;42.606;23.388;2022-10-16T02:48:30;94439.38;;;6.75;83.56
10261;BME280;5175;42.606;23.388;2022-10-16T02:50:56;94433.47;;;6.73;83.37
10261;BME280;5175;42.606;23.388;2022-10-16T02:53:23;94442.03;;;6.91;84.86
10261;BME280;5175;42.606;23.388;2022-10-16T02:55:50;94435.63;;;6.59;82.22
10261;BME280;5175;42.606;23.388;2022-10-16T02:58:16;94446.72;;;6.73;83.02
10261;BME280;5175;42.606;23.388;2022-10-16T03:00:43;94439.94;;;6.77;84.27
10261;BME280;5175;42.606;23.388;2022-10-16T03:03:10;94441.63;;;6.83;84.49
10261;BME280;5175;42.606;23.388;2022-10-16T03:05:38;94447.16;;;6.81;84.17
10261;BME280;5175;42.606;23.388;2022-10-16T03:08:05;94442.66;;;6.99;86.08
10261;BME280;5175;42.606;23.388;2022-10-16T03:10:31;94454.75;;;7.06;86.38
10261;BME280;5175;42.606;23.388;2022-10-16T03:12:58;94459.66;;;7.14;87.52
10261;BME280;5175;42.606;23.388;2022-10-16T03:15:25;94463.69;;;7.17;87.28
10261;BME280;5175;42.606;23.388;2022-10-16T03:17:53;94441.00;;;7.09;87.71
10261;BME280;5175;42.606;23.388;2022-10-16T03:20:20;94459.66;;;7.31;89.97
10261;BME280;5175;42.606;23.388;2022-10-16T03:22:48;94466.63;;;7.04;88.60
10261;BME280;5175;42.606;23.388;2022-10-16T03:25:15;94466.88;;;7.02;88.52
10261;BME280;5175;42.606;23.388;2022-10-16T03:27:42;94479.88;;;6.87;87.02
10261;BME280;5175;42.606;23.388;2022-10-16T03:30:09;94453.66;;;6.74;88.24
10261;BME280;5175;42.606;23.388;2022-10-16T03:32:36;94478.75;;;6.83;88.21
10261;BME280;5175;42.606;23.388;2022-10-16T03:35:03;94475.44;;;6.76;87.86
10261;BME280;5175;42.606;23.388;2022-10-16T03:37:30;94480.44;;;6.72;88.00
10261;BME280;5175;42.606;23.388;2022-10-16T03:39:58;94479.63;;;6.72;87.42
10261;BME280;5175;42.606;23.388;2022-10-16T03:42:25;94471.56;;;6.67;86.26
10261;BME280;5175;42.606;23.388;2022-10-16T03:44:52;94475.34;;;6.71;86.86
10261;BME280;5175;42.606;23.388;2022-10-16T03:47:18;94482.34;;;6.77;87.36
10261;BME280;5175;42.606;23.388;2022-10-16T03:49:47;94472.19;;;6.57;86.12
10261;BME280;5175;42.606;23.388;2022-10-16T03:52:13;94472.41;;;6.56;86.31
10261;BME280;5175;42.606;23.388;2022-10-16T03:54:40;94474.88;;;6.46;84.88
10261;BME280;5175;42.606;23.388;2022-10-16T03:57:08;94472.38;;;6.39;84.31
10261;BME280;5175;42.606;23.388;2022-10-16T03:59:35;94465.97;;;6.52;85.19
10261;BME280;5175;42.606;23.388;2022-10-16T04:02:02;94465.59;;;6.32;83.88
10261;BME280;5175;42.606;23.388;2022-10-16T04:04:28;94467.81;;;6.11;81.33
10261;BME280;5175;42.606;23.388;2022-10-16T04:06:55;94472.34;;;5.76;77.86
10261;BME280;5175;42.606;23.388;2022-10-16T04:09:22;94461.88;;;5.93;77.94
10261;BME280;5175;42.606;23.388;2022-10-16T04:11:48;94473.59;;;5.74;77.65
10261;BME280;5175;42.606;23.388;2022-10-16T04:14:17;94467.06;;;5.64;75.33
10261;BME280;5175;42.606;23.388;2022-10-16T04:16:44;94453.94;;;5.58;74.16
10261;BME280;5175;42.606;23.388;2022-10-16T04:19:11;94467.75;;;5.72;76.95
10261;BME280;5175;42.606;23.388;2022-10-16T04:21:37;94454.16;;;5.56;77.98
10261;BME280;5175;42.606;23.388;2022-10-16T04:24:04;94462.69;;;5.58;78.01
10261;BME280;5175;42.606;23.388;2022-10-16T04:26:31;94465.19;;;5.77;81.31
10261;BME280;5175;42.606;23.388;2022-10-16T04:28:58;94468.66;;;5.77;81.54
10261;BME280;5175;42.606;23.388;2022-10-16T04:31:26;94464.63;;;5.86;82.23
10261;BME280;5175;42.606;23.388;2022-10-16T04:33:52;94467.03;;;5.76;82.22
10261;BME280;5175;42.606;23.388;2022-10-16T04:36:19;94460.03;;;5.58;81.14
10261;BME280;5175;42.606;23.388;2022-10-16T04:38:46;94485.34;;;5.78;82.57
10261;BME280;5175;42.606;23.388;2022-10-16T04:41:13;94487.41;;;5.76;82.26
10261;BME280;5175;42.606;23.388;2022-10-16T04:43:39;94488.66;;;5.73;81.40
10261;BME280;5175;42.606;23.388;2022-10-16T04:46:06;94489.94;;;5.59;80.72
10261;BME280;5175;42.606;23.388;2022-10-16T04:48:34;94497.22;;;5.52;81.00
10261;BME280;5175;42.606;23.388;2022-10-16T04:51:01;94490.53;;;5.49;80.16
10261;BME280;5175;42.606;23.388;2022-10-16T04:53:28;94498.56;;;5.66;83.30
10261;BME280;5175;42.606;23.388;2022-10-16T04:55:54;94500.88;;;5.62;82.85
10261;BME280;5175;42.606;23.388;2022-10-16T04:58:22;94502.25;;;5.65;83.51
10261;BME280;5175;42.606;23.388;2022-10-16T05:00:49;94502.13;;;5.60;83.65
10261;BME280;5175;42.606;23.388;2022-10-16T05:03:16;94503.78;;;5.49;81.54
10261;BME280;5175;42.606;23.388;2022-10-16T05:05:45;94504.53;;;5.27;82.04
10261;BME280;5175;42.606;23.388;2022-10-16T05:08:12;94508.34;;;5.42;81.07
10261;BME280;5175;42.606;23.388;2022-10-16T05:10:41;94505.72;;;5.65;83.64
10261;BME280;5175;42.606;23.388;2022-10-16T05:13:08;94503.00;;;5.19;79.35
10261;BME280;5175;42.606;23.388;2022-10-16T05:15:35;94510.19;;;5.42;80.98
10261;BME280;5175;42.606;23.388;2022-10-16T05:18:01;94519.81;;;5.25;79.27
10261;BME280;5175;42.606;23.388;2022-10-16T05:20:28;94521.78;;;5.29;77.93
10261;BME280;5175;42.606;23.388;2022-10-16T05:22:56;94516.88;;;5.44;79.09
10261;BME280;5175;42.606;23.388;2022-10-16T05:25:24;94525.50;;;5.63;79.37
10261;BME280;5175;42.606;23.388;2022-10-16T05:27:50;94524.16;;;5.72;81.70
10261;BME280;5175;42.606;23.388;2022-10-16T05:30:17;94522.88;;;5.86;80.29
10261;BME280;5175;42.606;23.388;2022-10-16T05:32:46;94521.84;;;5.99;72.85
10261;BME280;5175;42.606;23.388;2022-10-16T05:35:14;94522.19;;;5.91;77.15
10261;BME280;5175;42.606;23.388;2022-10-16T05:37:40;94506.53;;;5.89;79.58
10261;BME280;5175;42.606;23.388;2022-10-16T05:40:09;94532.19;;;6.12;82.21
10261;BME280;5175;42.606;23.388;2022-10-16T05:42:37;94526.31;;;6.21;84.26
10261;BME280;5175;42.606;23.388;2022-10-16T05:45:05;94490.75;;;5.94;81.57
10261;BME280;5175;42.606;23.388;2022-10-16T05:47:32;94529.84;;;6.39;83.78
10261;BME280;5175;42.606;23.388;2022-10-16T05:49:58;94520.38;;;6.54;84.68
10261;BME280;5175;42.606;23.388;2022-10-16T05:52:26;94527.06;;;6.57;85.73
10261;BME280;5175;42.606;23.388;2022-10-16T05:54:53;94533.94;;;6.69;85.77
10261;BME280;5175;42.606;23.388;2022-10-16T05:57:21;94534.31;;;6.89;84.02
10261;BME280;5175;42.606;23.388;2022-10-16T05:59:47;94539.63;;;6.78;83.57
10261;BME280;5175;42.606;23.388;2022-10-16T06:02:14;94550.38;;;7.11;86.40
10261;BME280;5175;42.606;23.388;2022-10-16T06:04:41;94550.59;;;7.10;86.86
10261;BME280;5175;42.606;23.388;2022-10-16T06:07:08;94548.94;;;7.20;85.96
10261;BME280;5175;42.606;23.388;2022-10-16T06:09:35;94551.50;;;7.15;85.08
10261;BME280;5175;42.606;23.388;2022-10-16T06:12:01;94537.28;;;7.21;85.82
10261;BME280;5175;42.606;23.388;2022-10-16T06:14:30;94553.28;;;7.26;85.89
10261;BME280;5175;42.606;23.388;2022-10-16T06:16:56;94559.69;;;7.58;87.21
10261;BME280;5175;42.606;23.388;2022-10-16T06:19:23;94567.97;;;7.79;88.54
10261;BME280;5175;42.606;23.388;2022-10-16T06:21:50;94565.47;;;7.89;89.38
10261;BME280;5175;42.606;23.388;2022-10-16T06:24:17;94569.97;;;8.22;91.05
10261;BME280;5175;42.606;23.388;2022-10-16T06:26:43;94579.06;;;8.42;92.13
10261;BME280;5175;42.606;23.388;2022-10-16T06:29:10;94569.59;;;8.51;92.94
10261;BME280;5175;42.606;23.388;2022-10-16T06:31:38;94584.91;;;8.82;94.25
10261;BME280;5175;42.606;23.388;2022-10-16T06:34:05;94578.06;;;8.92;94.74
10261;BME280;5175;42.606;23.388;2022-10-16T06:36:34;94586.66;;;9.20;95.45
10261;BME280;5175;42.606;23.388;2022-10-16T06:39:01;94586.50;;;9.05;95.35
10261;BME280;5175;42.606;23.388;2022-10-16T06:41:28;94600.00;;;8.99;93.90
10261;BME280;5175;42.606;23.388;2022-10-16T06:43:55;94600.91;;;9.58;96.25
10261;BME280;5175;42.606;23.388;2022-10-16T06:46:23;94588.03;;;9.50;95.73
10261;BME280;5175;42.606;23.388;2022-10-16T06:48:52;94597.94;;;9.81;97.01
10261;BME280;5175;42.606;23.388;2022-10-16T06:51:20;94602.41;;;10.07;97.45
10261;BME280;5175;42.606;23.388;2022-10-16T06:53:48;94611.16;;;10.29;97.64
10261;BME280;5175;42.606;23.388;2022-10-16T06:56:17;94612.06;;;10.45;97.56
10261;BME280;5175;42.606;23.388;2022-10-16T06:58:44;94608.59;;;10.49;97.49
10261;BME280;5175;42.606;23.388;2022-10-16T07:01:12;94580.06;;;10.50;97.36
10261;BME280;5175;42.606;23.388;2022-10-16T07:03:41;94630.91;;;10.75;97.26
10261;BME280;5175;42.606;23.388;2022-10-16T07:06:12;94626.38;;;10.76;97.37
10261;BME280;5175;42.606;23.388;2022-10-16T07:08:40;94626.72;;;10.94;97.19
10261;BME280;5175;42.606;23.388;2022-10-16T07:11:09;94626.28;;;11.12;97.13
10261;BME280;5175;42.606;23.388;2022-10-16T07:13:37;94631.19;;;11.41;96.93
10261;BME280;5175;42.606;23.388;2022-10-16T07:16:05;94634.47;;;11.53;96.72
10261;BME280;5175;42.606;23.388;2022-10-16T07:18:32;94620.66;;;11.71;96.48
10261;BME280;5175;42.606;23.388;2022-10-16T07:21:03;94636.44;;;11.98;95.72
10261;BME280;5175;42.606;23.388;2022-10-16T07:23:31;94638.59;;;12.01;96.06
10261;BME280;5175;42.606;23.388;2022-10-16T07:25:59;94640.47;;;12.30;95.14
10261;BME280;5175;42.606;23.388;2022-10-16T07:28:26;94641.28;;;12.36;95.31
10261;BME280;5175;42.606;23.388;2022-10-16T07:30:52;94636.47;;;12.18;94.62
10261;BME280;5175;42.606;23.388;2022-10-16T07:33:19;94643.69;;;12.57;93.52
10261;BME280;5175;42.606;23.388;2022-10-16T07:35:50;94643.66;;;12.83;91.83
10261;BME280;5175;42.606;23.388;2022-10-16T07:38:17;94655.19;;;12.73;92.33
10261;BME280;5175;42.606;23.388;2022-10-16T07:40:46;94652.47;;;12.88;91.71
10261;BME280;5175;42.606;23.388;2022-10-16T07:43:14;94657.53;;;13.05;90.00
10261;BME280;5175;42.606;23.388;2022-10-16T07:45:47;94658.09;;;13.07;90.10
10261;BME280;5175;42.606;23.388;2022-10-16T07:48:14;94659.09;;;13.26;89.08
10261;BME280;5175;42.606;23.388;2022-10-16T07:50:41;94661.72;;;13.41;87.26
10261;BME280;5175;42.606;23.388;2022-10-16T07:53:08;94665.72;;;13.49;87.64
10261;BME280;5175;42.606;23.388;2022-10-16T07:55:35;94667.50;;;13.73;85.57
10261;BME280;5175;42.606;23.388;2022-10-16T07:58:03;94664.91;;;14.02;84.80
10261;BME280;5175;42.606;23.388;2022-10-16T08:00:31;94668.34;;;14.08;82.81
10261;BME280;5175;42.606;23.388;2022-10-16T08:02:58;94674.50;;;14.13;82.52
10261;BME280;5175;42.606;23.388;2022-10-16T08:05:25;94676.03;;;14.24;81.81
10261;BME280;5175;42.606;23.388;2022-10-16T08:07:53;94677.13;;;14.23;80.72
10261;BME280;5175;42.606;23.388;2022-10-16T08:10:22;94678.94;;;14.33;76.38
10261;BME280;5175;42.606;23.388;2022-10-16T08:12:50;94668.22;;;14.28;76.19
10261;BME280;5175;42.606;23.388;2022-10-16T08:15:19;94671.06;;;14.47;76.61
10261;BME280;5175;42.606;23.388;2022-10-16T08:17:54;94678.91;;;14.72;73.86
10261;BME280;5175;42.606;23.388;2022-10-16T08:20:21;94681.25;;;14.83;74.04
10261;BME280;5175;42.606;23.388;2022-10-16T08:22:48;94677.84;;;15.01;71.28
10261;BME280;5175;42.606;23.388;2022-10-16T08:25:14;94677.00;;;15.06;70.58
10261;BME280;5175;42.606;23.388;2022-10-16T08:27:41;94675.81;;;15.17;69.85
10261;BME280;5175;42.606;23.388;2022-10-16T08:30:09;94676.47;;;15.33;68.64
10261;BME280;5175;42.606;23.388;2022-10-16T08:32:37;94678.94;;;15.53;67.23
10261;BME280;5175;42.606;23.388;2022-10-16T08:35:05;94671.31;;;15.60;66.35
10261;BME280;5175;42.606;23.388;2022-10-16T08:37:32;94674.47;;;15.67;64.97
10261;BME280;5175;42.606;23.388;2022-10-16T08:39:59;94675.25;;;15.68;64.83
10261;BME280;5175;42.606;23.388;2022-10-16T08:42:38;94682.88;;;15.84;64.08
10261;BME280;5175;42.606;23.388;2022-10-16T08:45:25;94682.38;;;15.58;62.63
10261;BME280;5175;42.606;23.388;2022-10-16T08:48:06;94683.31;;;15.91;62.28
10261;BME280;5175;42.606;23.388;2022-10-16T08:50:38;94679.59;;;15.87;63.26
10261;BME280;5175;42.606;23.388;2022-10-16T08:53:06;94681.06;;;15.98;63.23
10261;BME280;5175;42.606;23.388;2022-10-16T08:55:38;94694.75;;;16.02;57.23
10261;BME280;5175;42.606;23.388;2022-10-16T08:58:12;94694.69;;;16.07;56.97
10261;BME280;5175;42.606;23.388;2022-10-16T09:00:39;94701.66;;;16.26;57.74
10261;BME280;5175;42.606;23.388;2022-10-16T09:03:16;94696.75;;;16.52;57.95
10261;BME280;5175;42.606;23.388;2022-10-16T09:06:01;94689.66;;;16.19;58.00
10261;BME280;5175;42.606;23.388;2022-10-16T09:08:40;94688.47;;;16.44;60.09
10261;BME280;5175;42.606;23.388;2022-10-16T09:11:12;94686.59;;;16.44;56.99
10261;BME280;5175;42.606;23.388;2022-10-16T09:13:48;94683.09;;;16.44;55.74
10261;BME280;5175;42.606;23.388;2022-10-16T09:16:19;94682.88;;;16.77;54.70
10261;BME280;5175;42.606;23.388;2022-10-16T09:18:56;94682.28;;;16.80;54.83
10261;BME280;5175;42.606;23.388;2022-10-16T09:21:29;94680.13;;;16.96;55.23
10261;BME280;5175;42.606;23.388;2022-10-16T09:23:58;94686.56;;;17.14;53.33
10261;BME280;5175;42.606;23.388;2022-10-16T09:26:26;94677.97;;;16.79;52.00
10261;BME280;5175;42.606;23.388;2022-10-16T09:28:53;94681.13;;;17.00;51.73
10261;BME280;5175;42.606;23.388;2022-10-16T09:31:22;94679.47;;;17.04;51.01
10261;BME280;5175;42.606;23.388;2022-10-16T09:33:55;94676.78;;;17.31;52.48
10261;BME280;5175;42.606;23.388;2022-10-16T09:36:25;94675.97;;;17.04;50.73
10261;BME280;5175;42.606;23.388;2022-10-16T09:39:03;94669.28;;;17.28;52.01
10261;BME280;5175;42.606;23.388;2022-10-16T09:41:30;94659.72;;;17.22;50.63
10261;BME280;5175;42.606;23.388;2022-10-16T09:44:01;94670.69;;;17.26;49.05
10261;BME280;5175;42.606;23.388;2022-10-16T09:46:30;94657.50;;;17.24;49.74
10261;BME280;5175;42.606;23.388;2022-10-16T09:49:00;94662.69;;;17.21;50.73
10261;BME280;5175;42.606;23.388;2022-10-16T09:51:29;94663.69;;;17.38;50.86
10261;BME280;5175;42.606;23.388;2022-10-16T09:53:59;94657.44;;;17.57;50.42
10261;BME280;5175;42.606;23.388;2022-10-16T09:56:28;94666.34;;;17.57;49.54
10261;BME280;5175;42.606;23.388;2022-10-16T09:58:56;94668.00;;;17.39;49.83
10261;BME280;5175;42.606;23.388;2022-10-16T10:01:28;94667.75;;;17.55;49.17
10261;BME280;5175;42.606;23.388;2022-10-16T10:03:58;94656.66;;;17.70;48.67
10261;BME280;5175;42.606;23.388;2022-10-16T10:06:30;94658.03;;;17.67;49.05
10261;BME280;5175;42.606;23.388;2022-10-16T10:09:04;94657.75;;;17.69;51.76
10261;BME280;5175;42.606;23.388;2022-10-16T10:11:43;94656.44;;;17.93;50.61
10261;BME280;5175;42.606;23.388;2022-10-16T10:14:24;94648.31;;;17.93;50.65
10261;BME280;5175;42.606;23.388;2022-10-16T10:17:01;94645.47;;;18.26;48.95
10261;BME280;5175;42.606;23.388;2022-10-16T10:19:29;94645.00;;;18.10;50.64
10261;BME280;5175;42.606;23.388;2022-10-16T10:21:56;94635.94;;;18.28;49.62
10261;BME280;5175;42.606;23.388;2022-10-16T10:24:22;94645.97;;;18.28;47.67
10261;BME280;5175;42.606;23.388;2022-10-16T10:26:56;94640.91;;;18.48;47.56
10261;BME280;5175;42.606;23.388;2022-10-16T10:29:37;94633.78;;;18.74;48.13
10261;BME280;5175;42.606;23.388;2022-10-16T10:32:18;94638.16;;;18.93;47.94
10261;BME280;5175;42.606;23.388;2022-10-16T10:35:06;94637.44;;;19.01;48.69
10261;BME280;5175;42.606;23.388;2022-10-16T10:37:51;94627.88;;;18.95;49.09
10261;BME280;5175;42.606;23.388;2022-10-16T10:40:29;94616.31;;;18.81;48.49
10261;BME280;5175;42.606;23.388;2022-10-16T10:43:03;94629.41;;;18.87;47.67
10261;BME280;5175;42.606;23.388;2022-10-16T10:45:39;94632.47;;;18.94;47.32
10261;BME280;5175;42.606;23.388;2022-10-16T10:48:24;94632.19;;;18.73;46.88
10261;BME280;5175;42.606;23.388;2022-10-16T10:50:58;94624.44;;;18.81;48.45
10261;BME280;5175;42.606;23.388;2022-10-16T10:53:37;94629.56;;;18.91;46.85
10261;BME280;5175;42.606;23.388;2022-10-16T10:56:15;94631.00;;;18.88;44.98
10261;BME280;5175;42.606;23.388;2022-10-16T10:59:07;94632.19;;;18.73;45.13
10261;BME280;5175;42.606;23.388;2022-10-16T11:01:46;94617.22;;;18.98;44.79
10261;BME280;5175;42.606;23.388;2022-10-16T11:04:34;94617.81;;;18.95;45.38
10261;BME280;5175;42.606;23.388;2022-10-16T11:07:10;94586.09;;;18.79;44.92
10261;BME280;5175;42.606;23.388;2022-10-16T11:09:44;94606.44;;;19.07;46.98
10261;BME280;5175;42.606;23.388;2022-10-16T11:12:15;94612.41;;;19.26;46.08
10261;BME280;5175;42.606;23.388;2022-10-16T11:14:49;94605.81;;;19.41;43.24
10261;BME280;5175;42.606;23.388;2022-10-16T11:17:24;94612.16;;;19.36;44.14
10261;BME280;5175;42.606;23.388;2022-10-16T11:19:56;94611.72;;;19.43;42.34
10261;BME280;5175;42.606;23.388;2022-10-16T11:22:32;94603.78;;;19.55;43.69
10261;BME280;5175;42.606;23.388;2022-10-16T11:25:05;94597.56;;;19.54;45.24
10261;BME280;5175;42.606;23.388;2022-10-16T11:27:41;94597.63;;;19.71;44.84
10261;BME280;5175;42.606;23.388;2022-10-16T11:30:14;94593.09;;;19.50;41.32
10261;BME280;5175;42.606;23.388;2022-10-16T11:32:51;94603.81;;;19.63;39.16
10261;BME280;5175;42.606;23.388;2022-10-16T11:35:22;94609.72;;;19.65;37.69
10261;BME280;5175;42.606;23.388;2022-10-16T11:37:53;94604.31;;;19.65;38.94
10261;BME280;5175;42.606;23.388;2022-10-16T11:40:25;94609.13;;;19.85;40.70
10261;BME280;5175;42.606;23.388;2022-10-16T11:42:58;94590.97;;;19.86;38.08
10261;BME280;5175;42.606;23.388;2022-10-16T11:45:33;94617.63;;;20.10;37.66
10261;BME280;5175;42.606;23.388;2022-10-16T11:48:10;94614.94;;;20.18;36.06
10261;BME280;5175;42.606;23.388;2022-10-16T11:50:43;94605.63;;;19.93;36.46
10261;BME280;5175;42.606;23.388;2022-10-16T11:53:20;94608.81;;;19.78;36.38
10261;BME280;5175;42.606;23.388;2022-10-16T11:55:49;94606.75;;;19.84;37.80
10261;BME280;5175;42.606;23.388;2022-10-16T11:58:24;94616.19;;;20.12;38.52
10261;BME280;5175;42.606;23.388;2022-10-16T12:00:59;94605.25;;;20.26;37.63
10261;BME280;5175;42.606;23.388;2022-10-16T12:03:33;94607.63;;;20.53;37.79
10261;BME280;5175;42.606;23.388;2022-10-16T12:06:14;94609.34;;;20.57;36.65
10261;BME280;5175;42.606;23.388;2022-10-16T12:08:47;94606.00;;;20.52;35.90
10261;BME280;5175;42.606;23.388;2022-10-16T12:11:24;94618.47;;;20.53;36.69
10261;BME280;5175;42.606;23.388;2022-10-16T12:14:06;94603.78;;;20.45;36.39
10261;BME280;5175;42.606;23.388;2022-10-16T12:16:33;94608.38;;;20.62;38.76
10261;BME280;5175;42.606;23.388;2022-10-16T12:19:10;94610.75;;;20.89;37.43
10261;BME280;5175;42.606;23.388;2022-10-16T12:21:37;94607.41;;;20.92;37.61
10261;BME280;5175;42.606;23.388;2022-10-16T12:24:06;94603.59;;;20.85;37.90
10261;BME280;5175;42.606;23.388;2022-10-16T12:26:36;94611.72;;;20.85;35.21
10261;BME280;5175;42.606;23.388;2022-10-16T12:29:14;94607.72;;;20.91;37.88
10261;BME280;5175;42.606;23.388;2022-10-16T12:31:48;94610.59;;;20.86;36.76
10261;BME280;5175;42.606;23.388;2022-10-16T12:34:22;94613.34;;;20.77;36.12
10261;BME280;5175;42.606;23.388;2022-10-16T12:36:50;94615.38;;;20.89;35.99
10261;BME280;5175;42.606;23.388;2022-10-16T12:39:22;94616.69;;;20.74;34.80
10261;BME280;5175;42.606;23.388;2022-10-16T12:42:01;94610.75;;;20.89;33.75
10261;BME280;5175;42.606;23.388;2022-10-16T12:44:33;94619.84;;;20.93;35.24
10261;BME280;5175;42.606;23.388;2022-10-16T12:47:00;94614.09;;;20.95;34.59
10261;BME280;5175;42.606;23.388;2022-10-16T12:49:34;94620.16;;;20.92;34.30
10261;BME280;5175;42.606;23.388;2022-10-16T12:52:02;94606.13;;;21.07;34.95
10261;BME280;5175;42.606;23.388;2022-10-16T12:54:35;94623.38;;;21.49;34.34
10261;BME280;5175;42.606;23.388;2022-10-16T12:57:22;94623.94;;;21.63;34.31
10261;BME280;5175;42.606;23.388;2022-10-16T12:59:58;94627.25;;;21.77;34.77
10261;BME280;5175;42.606;23.388;2022-10-16T13:02:52;94633.88;;;21.97;34.18
10261;BME280;5175;42.606;23.388;2022-10-16T13:05:29;94625.34;;;21.77;34.21
10261;BME280;5175;42.606;23.388;2022-10-16T13:08:11;94638.81;;;22.03;34.69
10261;BME280;5175;42.606;23.388;2022-10-16T13:10:54;94635.16;;;22.20;32.22
10261;BME280;5175;42.606;23.388;2022-10-16T13:13:50;94636.44;;;22.22;31.29
10261;BME280;5175;42.606;23.388;2022-10-16T13:16:27;94645.91;;;22.37;33.80
10261;BME280;5175;42.606;23.388;2022-10-16T13:19:08;94644.00;;;22.58;32.51
10261;BME280;5175;42.606;23.388;2022-10-16T13:21:45;94644.88;;;22.71;31.86